createdAt,value
2019-02-25T00:00:26.139Z,10.60
2019-02-25T00:02:54.548Z,9.23
2019-02-25T00:05:22.950Z,10.53
2019-02-25T00:07:51.358Z,8.10
2019-02-25T00:10:19.755Z,9.37
2019-02-25T00:12:48.154Z,8.43
2019-02-25T00:15:16.557Z,8.33
2019-02-25T00:17:44.960Z,9.07
2019-02-25T00:20:13.619Z,7.73
2019-02-25T00:22:41.998Z,9.73
2019-02-25T00:25:11.844Z,7.67
2019-02-25T00:27:40.266Z,7.37
2019-02-25T00:30:11.563Z,7.40
2019-02-25T00:32:39.954Z,6.43
2019-02-25T00:35:08.610Z,8.87
2019-02-25T00:37:37.004Z,9.43
2019-02-25T00:40:10.290Z,6.80
2019-02-25T00:42:38.768Z,7.67
2019-02-25T00:45:09.974Z,10.27
2019-02-25T00:47:38.391Z,8.60
2019-02-25T00:50:18.206Z,7.00
2019-02-25T00:52:46.662Z,8.80
2019-02-25T00:55:15.522Z,8.40
2019-02-25T00:57:43.971Z,7.70
2019-02-25T01:00:15.645Z,8.57
2019-02-25T01:02:44.064Z,6.03
2019-02-25T01:05:12.521Z,5.47
2019-02-25T01:07:40.929Z,4.63
2019-02-25T01:10:11.162Z,7.83
2019-02-25T01:12:39.805Z,5.97
2019-02-25T01:15:08.859Z,8.43
2019-02-25T01:17:37.414Z,7.17
2019-02-25T01:20:10.891Z,5.77
2019-02-25T01:22:39.285Z,6.43
2019-02-25T01:25:12.492Z,5.77
2019-02-25T01:27:40.878Z,6.37
2019-02-25T01:30:12.188Z,7.50
2019-02-25T01:32:40.662Z,5.87
2019-02-25T01:35:13.931Z,7.13
2019-02-25T01:37:42.594Z,7.73
2019-02-25T01:40:15.162Z,6.47
2019-02-25T01:42:43.571Z,6.63
2019-02-25T01:45:16.859Z,7.67
2019-02-25T01:47:45.269Z,7.17
2019-02-25T01:50:14.013Z,5.30
2019-02-25T01:52:42.479Z,8.67
2019-02-25T01:55:12.332Z,9.90
2019-02-25T01:57:40.811Z,7.00
2019-02-25T02:00:15.387Z,5.43
2019-02-25T02:02:44.693Z,8.73
2019-02-25T02:05:13.905Z,5.80
2019-02-25T02:07:42.314Z,6.90
2019-02-25T02:10:13.416Z,9.03
2019-02-25T02:12:41.820Z,5.60
2019-02-25T02:15:13.133Z,7.17
2019-02-25T02:17:41.542Z,4.90
2019-02-25T02:20:12.502Z,9.07
2019-02-25T02:22:40.903Z,8.63
2019-02-25T02:25:10.530Z,6.90
2019-02-25T02:27:38.951Z,6.03
2019-02-25T02:30:10.512Z,6.83
2019-02-25T02:32:38.903Z,6.93
2019-02-25T02:35:07.586Z,5.73
2019-02-25T02:37:35.980Z,7.33
2019-02-25T02:40:07.223Z,8.13
2019-02-25T02:42:35.847Z,5.30
2019-02-25T02:45:09.937Z,5.10
2019-02-25T02:47:47.002Z,6.60
2019-02-25T02:50:18.555Z,5.37
2019-02-25T02:52:46.960Z,6.37
2019-02-25T02:55:15.353Z,9.00
2019-02-25T02:57:43.755Z,5.23
2019-02-25T03:00:17.177Z,7.50
2019-02-25T03:02:45.738Z,7.30
2019-02-25T03:05:15.785Z,6.40
2019-02-25T03:07:44.241Z,9.20
2019-02-25T03:10:14.475Z,7.23
2019-02-25T03:12:43.184Z,8.40
2019-02-25T03:15:14.424Z,7.37
2019-02-25T03:17:43.075Z,9.13
2019-02-25T03:20:12.614Z,13.17
2019-02-25T03:22:41.075Z,6.07
2019-02-25T03:25:14.737Z,6.63
2019-02-25T03:27:43.123Z,7.40
2019-02-25T03:30:14.604Z,8.13
2019-02-25T03:32:43.096Z,7.20
2019-02-25T03:35:11.629Z,7.40
2019-02-25T03:37:40.034Z,7.93
2019-02-25T03:40:16.440Z,6.97
2019-02-25T03:42:45.173Z,12.03
2019-02-25T03:45:18.123Z,8.10
2019-02-25T03:47:46.520Z,7.50
2019-02-25T03:50:15.178Z,6.30
2019-02-25T03:52:43.847Z,8.97
2019-02-25T03:55:17.462Z,7.27
2019-02-25T03:57:45.878Z,7.93
2019-02-25T04:00:25.857Z,6.70
2019-02-25T04:02:54.353Z,7.97
2019-02-25T04:05:22.750Z,6.57
2019-02-25T04:07:51.366Z,8.27
2019-02-25T04:10:19.947Z,7.27
2019-02-25T04:12:48.342Z,9.13
2019-02-25T04:15:20.013Z,7.07
2019-02-25T04:17:49.095Z,10.87
2019-02-25T04:20:18.125Z,7.53
2019-02-25T04:22:46.524Z,6.70
2019-02-25T04:25:14.979Z,5.73
2019-02-25T04:27:43.451Z,8.57
2019-02-25T04:30:14.550Z,5.53
2019-02-25T04:32:43.100Z,6.47
2019-02-25T04:35:12.830Z,6.37
2019-02-25T04:37:41.233Z,8.40
2019-02-25T04:40:11.575Z,7.63
2019-02-25T04:42:39.973Z,7.10
2019-02-25T04:45:13.844Z,8.03
2019-02-25T04:47:42.246Z,8.03
2019-02-25T04:50:11.902Z,7.23
2019-02-25T04:52:40.319Z,5.70
2019-02-25T04:55:12.985Z,8.20
2019-02-25T04:57:41.399Z,5.57
2019-02-25T05:00:18.488Z,7.20
2019-02-25T05:02:47.293Z,8.00
2019-02-25T05:05:15.818Z,5.53
2019-02-25T05:07:44.286Z,4.70
2019-02-25T05:10:17.076Z,7.03
2019-02-25T05:12:47.433Z,6.30
2019-02-25T05:15:20.169Z,6.70
2019-02-25T05:17:48.593Z,5.93
2019-02-25T05:20:16.987Z,7.87
2019-02-25T05:22:45.466Z,6.50
2019-02-25T05:25:13.923Z,6.93
2019-02-25T05:27:42.318Z,6.57
2019-02-25T05:30:15.054Z,8.20
2019-02-25T05:32:43.475Z,6.77
2019-02-25T05:35:13.004Z,5.73
2019-02-25T05:37:41.659Z,5.10
2019-02-25T05:40:17.980Z,7.77
2019-02-25T05:42:46.406Z,7.53
2019-02-25T05:45:15.351Z,9.03
2019-02-25T05:47:43.838Z,6.83
2019-02-25T05:50:19.445Z,6.87
2019-02-25T05:52:47.932Z,6.23
2019-02-25T05:55:17.562Z,9.03
2019-02-25T05:57:46.126Z,8.10
2019-02-25T06:00:29.439Z,8.40
2019-02-25T06:02:57.930Z,7.47
2019-02-25T06:05:26.409Z,9.93
2019-02-25T06:07:54.818Z,9.80
2019-02-25T06:10:23.222Z,6.80
2019-02-25T06:12:51.654Z,8.10
2019-02-25T06:15:20.530Z,7.53
2019-02-25T06:17:48.923Z,7.77
2019-02-25T06:20:17.983Z,5.93
2019-02-25T06:22:46.409Z,9.73
2019-02-25T06:25:16.097Z,7.27
2019-02-25T06:27:44.526Z,8.73
2019-02-25T06:30:18.396Z,6.70
2019-02-25T06:32:46.782Z,9.50
2019-02-25T06:35:15.272Z,6.77
2019-02-25T06:37:43.740Z,5.93
2019-02-25T06:40:15.520Z,17.33
2019-02-25T06:42:44.676Z,10.30
2019-02-25T06:45:18.971Z,9.23
2019-02-25T06:47:47.358Z,8.50
2019-02-25T06:50:15.751Z,11.83
2019-02-25T06:52:44.158Z,9.80
2019-02-25T06:55:14.720Z,8.87
2019-02-25T06:57:43.147Z,8.23
2019-02-25T07:00:17.210Z,12.30
2019-02-25T07:02:45.618Z,11.33
2019-02-25T07:05:32.370Z,11.93
2019-02-25T07:08:02.406Z,17.63
2019-02-25T07:10:35.517Z,12.50
2019-02-25T07:13:05.623Z,9.80
2019-02-25T07:15:41.162Z,10.63
2019-02-25T07:18:13.878Z,11.33
2019-02-25T07:20:43.920Z,12.37
2019-02-25T07:23:30.190Z,9.70
2019-02-25T07:26:09.006Z,13.33
2019-02-25T07:28:41.760Z,12.90
2019-02-25T07:31:14.502Z,13.77
2019-02-25T07:33:47.525Z,11.80
2019-02-25T07:36:20.374Z,10.73
2019-02-25T07:39:06.778Z,9.77
2019-02-25T07:41:38.282Z,11.77
2019-02-25T07:44:10.955Z,11.00
2019-02-25T07:46:40.990Z,12.10
2019-02-25T07:49:19.863Z,14.77
2019-02-25T07:51:49.902Z,16.33
2019-02-25T07:54:37.850Z,15.13
2019-02-25T07:57:10.991Z,14.57
2019-02-25T07:59:41.042Z,14.37
2019-02-25T08:02:19.785Z,16.50
2019-02-25T08:04:49.842Z,15.97
2019-02-25T08:07:31.727Z,16.77
2019-02-25T08:10:10.654Z,12.47
2019-02-25T08:12:40.686Z,13.40
2019-02-25T08:15:23.434Z,16.57
2019-02-25T08:17:56.425Z,14.03
2019-02-25T08:20:26.488Z,13.00
2019-02-25T08:22:59.294Z,17.20
2019-02-25T08:25:32.469Z,14.43
2019-02-25T08:28:20.057Z,11.63
2019-02-25T08:30:55.552Z,11.87
2019-02-25T08:33:44.070Z,9.40
2019-02-25T08:36:19.626Z,10.23
2019-02-25T08:39:01.345Z,8.67
2019-02-25T08:41:37.598Z,9.63
2019-02-25T08:44:13.654Z,8.07
2019-02-25T08:46:46.216Z,5.87
2019-02-25T08:49:18.748Z,3.30
2019-02-25T08:51:47.119Z,4.60
2019-02-25T08:54:15.534Z,9.13
2019-02-25T08:56:43.943Z,4.17
2019-02-25T08:59:12.357Z,8.43
2019-02-25T09:01:40.748Z,4.00
2019-02-25T09:04:09.148Z,4.20
2019-02-25T09:06:37.558Z,5.67
2019-02-25T09:09:06.605Z,5.53
2019-02-25T09:11:34.998Z,5.77
2019-02-25T09:14:03.450Z,4.43
2019-02-25T09:16:31.907Z,5.40
2019-02-25T09:19:00.575Z,6.13
2019-02-25T09:21:31.891Z,5.57
2019-02-25T09:23:59.380Z,5.20
2019-02-25T09:26:27.766Z,7.37
2019-02-25T09:28:57.385Z,5.30
2019-02-25T09:31:26.241Z,4.97
2019-02-25T09:33:54.707Z,2.87
2019-02-25T09:36:23.200Z,2.57
2019-02-25T09:38:51.606Z,3.37
2019-02-25T09:41:29.471Z,4.37
2019-02-25T09:43:50.219Z,5.43
2019-02-25T09:46:18.606Z,4.63
2019-02-25T09:48:47.026Z,2.77
2019-02-25T09:51:15.420Z,3.17
2019-02-25T09:53:43.806Z,3.70
2019-02-25T09:56:12.211Z,2.27
2019-02-25T09:58:40.625Z,4.30
2019-02-25T10:01:09.034Z,6.87
2019-02-25T10:03:37.450Z,9.67
2019-02-25T10:06:05.911Z,4.47
2019-02-25T10:08:34.326Z,2.43
2019-02-25T10:11:02.719Z,5.10
2019-02-25T10:13:31.106Z,3.00
2019-02-25T10:15:59.510Z,3.23
2019-02-25T10:18:27.901Z,4.50
2019-02-25T10:20:56.306Z,4.33
2019-02-25T10:23:24.701Z,2.17
2019-02-25T10:25:53.103Z,4.07
2019-02-25T10:28:21.554Z,4.23
2019-02-25T10:30:52.929Z,2.37
2019-02-25T10:33:20.056Z,3.43
2019-02-25T10:35:48.463Z,3.70
2019-02-25T10:38:16.871Z,4.00
2019-02-25T10:40:45.868Z,2.20
2019-02-25T10:43:15.498Z,2.30
2019-02-25T10:45:45.427Z,2.50
2019-02-25T10:48:15.265Z,4.30
2019-02-25T10:50:44.218Z,3.07
2019-02-25T10:53:13.568Z,4.50
2019-02-25T10:55:53.028Z,3.70
2019-02-25T10:58:21.481Z,3.43
2019-02-25T11:00:49.960Z,2.33
2019-02-25T11:03:20.044Z,5.60
2019-02-25T11:05:48.498Z,2.53
2019-02-25T11:08:18.536Z,3.80
2019-02-25T11:10:50.322Z,4.20
2019-02-25T11:13:18.854Z,4.77
2019-02-25T11:15:48.385Z,6.40
2019-02-25T11:18:19.229Z,2.73
2019-02-25T11:20:47.138Z,5.80
2019-02-25T11:23:17.187Z,4.53
2019-02-25T11:25:45.686Z,4.13
2019-02-25T11:28:24.888Z,5.50
2019-02-25T11:30:47.141Z,7.00
2019-02-25T11:33:15.330Z,2.97
2019-02-25T11:35:45.561Z,3.87
2019-02-25T11:38:13.856Z,4.33
2019-02-25T11:40:42.270Z,2.43
2019-02-25T11:43:13.083Z,5.53
2019-02-25T11:45:40.780Z,3.13
2019-02-25T11:48:09.190Z,5.73
2019-02-25T11:50:37.654Z,4.40
2019-02-25T11:53:06.092Z,8.83
2019-02-25T11:55:34.489Z,2.77
2019-02-25T11:58:03.205Z,2.93
2019-02-25T12:00:31.974Z,10.20
2019-02-25T12:03:00.466Z,4.37
2019-02-25T12:05:28.914Z,4.70
2019-02-25T12:07:57.331Z,7.53
2019-02-25T12:10:25.742Z,9.23
2019-02-25T12:12:54.134Z,4.67
2019-02-25T12:15:23.882Z,3.47
2019-02-25T12:17:52.384Z,3.20
2019-02-25T12:20:20.871Z,4.17
2019-02-25T12:22:49.266Z,2.67
2019-02-25T12:25:20.605Z,4.53
2019-02-25T12:27:51.156Z,1.97
2019-02-25T12:30:24.934Z,3.13
2019-02-25T12:32:53.500Z,5.93
2019-02-25T12:35:21.893Z,3.20
2019-02-25T12:37:50.309Z,6.27
2019-02-25T12:40:19.319Z,2.23
2019-02-25T12:42:47.835Z,3.90
2019-02-25T12:45:16.782Z,4.23
2019-02-25T12:47:45.174Z,4.00
2019-02-25T12:50:20.315Z,5.83
2019-02-25T12:52:48.895Z,4.20
2019-02-25T12:55:18.112Z,2.40
2019-02-25T12:57:46.586Z,2.93
2019-02-25T13:00:25.117Z,4.13
2019-02-25T13:02:53.530Z,4.50
2019-02-25T13:05:23.301Z,8.03
2019-02-25T13:07:51.698Z,13.43
2019-02-25T13:10:20.286Z,2.70
2019-02-25T13:12:51.389Z,5.50
2019-02-25T13:15:20.731Z,3.70
2019-02-25T13:17:49.118Z,6.27
2019-02-25T13:20:17.539Z,3.40
2019-02-25T13:22:45.952Z,4.50
2019-02-25T13:25:25.650Z,4.33
2019-02-25T13:27:54.731Z,5.90
2019-02-25T13:30:24.207Z,8.10
2019-02-25T13:32:52.686Z,4.83
2019-02-25T13:35:21.080Z,3.73
2019-02-25T13:37:49.497Z,4.67
2019-02-25T13:40:18.770Z,4.30
2019-02-25T13:42:47.263Z,6.17
2019-02-25T13:45:18.144Z,5.80
2019-02-25T13:47:46.609Z,3.50
2019-02-25T13:50:16.927Z,2.90
2019-02-25T13:52:48.476Z,7.87
2019-02-25T13:55:18.007Z,3.83
2019-02-25T13:57:46.400Z,3.87
2019-02-25T14:00:20.674Z,2.57
2019-02-25T14:02:49.221Z,5.77
2019-02-25T14:05:18.184Z,5.57
2019-02-25T14:07:46.692Z,4.47
2019-02-25T14:10:16.590Z,5.83
2019-02-25T14:12:45.275Z,4.77
2019-02-25T14:15:16.269Z,7.90
2019-02-25T14:17:44.746Z,2.17
2019-02-25T14:20:15.616Z,4.40
2019-02-25T14:22:44.013Z,2.00
2019-02-25T14:25:19.692Z,6.27
2019-02-25T14:27:47.106Z,3.10
2019-02-25T14:30:18.694Z,3.67
2019-02-25T14:32:47.271Z,3.90
2019-02-25T14:35:16.702Z,2.03
2019-02-25T14:37:45.362Z,2.30
2019-02-25T14:40:21.072Z,5.40
2019-02-25T14:42:51.357Z,5.77
2019-02-25T14:45:21.593Z,6.57
2019-02-25T14:47:55.371Z,4.53
2019-02-25T14:50:21.059Z,6.07
2019-02-25T14:52:50.008Z,3.63
2019-02-25T14:55:18.468Z,4.57
2019-02-25T14:57:47.045Z,2.57
2019-02-25T15:00:26.085Z,3.63
2019-02-25T15:02:54.448Z,2.90
2019-02-25T15:05:24.074Z,3.77
2019-02-25T15:07:53.384Z,3.57
2019-02-25T15:10:26.541Z,3.23
2019-02-25T15:12:56.494Z,5.60
2019-02-25T15:15:25.426Z,4.33
2019-02-25T15:17:54.067Z,3.87
2019-02-25T15:20:24.056Z,4.67
2019-02-25T15:22:53.101Z,6.87
2019-02-25T15:25:21.818Z,3.87
2019-02-25T15:27:50.363Z,4.37
2019-02-25T15:30:28.317Z,4.67
2019-02-25T15:32:58.819Z,4.83
2019-02-25T15:35:31.462Z,4.47
2019-02-25T15:37:58.341Z,5.77
2019-02-25T15:40:28.141Z,4.50
2019-02-25T15:43:04.927Z,7.10
2019-02-25T15:45:37.305Z,3.93
2019-02-25T15:48:07.660Z,3.30
2019-02-25T15:50:36.491Z,3.60
2019-02-25T15:53:07.230Z,4.27
2019-02-25T15:55:35.720Z,7.77
2019-02-25T15:58:04.282Z,2.97
2019-02-25T16:00:35.009Z,4.47
2019-02-25T16:03:06.194Z,4.77
2019-02-25T16:05:36.803Z,5.13
2019-02-25T16:08:05.201Z,3.20
2019-02-25T16:10:33.799Z,2.83
2019-02-25T16:13:04.875Z,6.67
2019-02-25T16:15:32.695Z,5.57
2019-02-25T16:18:02.480Z,6.87
2019-02-25T16:20:32.607Z,3.57
2019-02-25T16:23:02.772Z,4.93
2019-02-25T16:25:32.756Z,5.43
2019-02-25T16:28:02.518Z,5.83
2019-02-25T16:30:31.075Z,4.57
2019-02-25T16:32:59.996Z,5.50
2019-02-25T16:35:29.950Z,5.17
2019-02-25T16:38:00.322Z,4.33
2019-02-25T16:40:29.231Z,3.93
2019-02-25T16:42:59.669Z,3.43
2019-02-25T16:45:34.826Z,6.50
2019-02-25T16:47:59.311Z,9.67
2019-02-25T16:50:27.819Z,8.17
2019-02-25T16:52:56.437Z,8.33
2019-02-25T16:55:27.709Z,6.37
2019-02-25T16:57:56.430Z,5.23
2019-02-25T17:00:32.341Z,6.92
2019-02-25T17:03:03.584Z,6.33
2019-02-25T17:05:31.238Z,9.20
2019-02-25T17:08:01.293Z,7.03
2019-02-25T17:10:32.082Z,12.40
2019-02-25T17:12:59.954Z,5.20
2019-02-25T17:15:28.413Z,7.17
2019-02-25T17:17:59.793Z,10.03
2019-02-25T17:20:28.015Z,5.77
2019-02-25T17:22:57.085Z,9.43
2019-02-25T17:25:28.986Z,12.90
2019-02-25T17:27:55.678Z,6.37
2019-02-25T17:30:25.611Z,9.67
2019-02-25T17:32:54.343Z,6.20
2019-02-25T17:35:25.949Z,7.60
2019-02-25T17:37:55.530Z,13.37
2019-02-25T17:40:24.069Z,9.03
2019-02-25T17:42:54.051Z,10.83
2019-02-25T17:45:25.054Z,10.20
2019-02-25T17:47:58.324Z,9.93
2019-02-25T17:50:25.264Z,7.47
2019-02-25T17:52:53.742Z,8.67
2019-02-25T17:55:25.356Z,8.63
2019-02-25T17:57:54.250Z,6.83
2019-02-25T18:00:43.943Z,6.97
2019-02-25T18:03:12.410Z,5.40
2019-02-25T18:05:43.395Z,8.07
2019-02-25T18:08:13.253Z,10.00
2019-02-25T18:10:43.039Z,8.90
2019-02-25T18:13:12.492Z,9.43
2019-02-25T18:15:41.576Z,10.97
2019-02-25T18:18:12.550Z,7.90
2019-02-25T18:20:40.173Z,10.53
2019-02-25T18:23:08.869Z,11.10
2019-02-25T18:25:37.702Z,11.87
2019-02-25T18:28:08.483Z,14.50
2019-02-25T18:30:37.776Z,15.87
2019-02-25T18:33:06.545Z,12.13
2019-02-25T18:35:37.690Z,13.10
2019-02-25T18:38:07.202Z,10.63
2019-02-25T18:40:36.472Z,11.60
2019-02-25T18:43:06.839Z,9.97
2019-02-25T18:45:38.406Z,12.80
2019-02-25T18:48:08.035Z,10.60
2019-02-25T18:50:36.520Z,12.87
2019-02-25T18:53:05.082Z,11.00
2019-02-25T18:55:34.348Z,10.97
2019-02-25T18:58:05.070Z,16.80
2019-02-25T19:00:37.532Z,16.37
2019-02-25T19:03:06.855Z,14.63
2019-02-25T19:05:35.474Z,15.03
2019-02-25T19:08:15.085Z,15.20
2019-02-25T19:10:46.180Z,15.23
2019-02-25T19:13:15.925Z,17.00
2019-02-25T19:15:45.093Z,18.97
2019-02-25T19:18:15.471Z,17.23
2019-02-25T19:20:45.864Z,15.90
2019-02-25T19:23:16.360Z,17.93
2019-02-25T19:25:44.430Z,20.67
2019-02-25T19:28:16.649Z,23.67
2019-02-25T19:30:43.071Z,21.63
2019-02-25T19:33:11.780Z,19.50
2019-02-25T19:35:40.880Z,18.10
2019-02-25T19:38:10.320Z,14.23
2019-02-25T19:40:40.860Z,22.67
2019-02-25T19:43:11.288Z,18.17
2019-02-25T19:45:40.991Z,18.63
2019-02-25T19:48:09.990Z,20.43
2019-02-25T19:50:49.847Z,22.80
2019-02-25T19:53:11.775Z,19.30
2019-02-25T19:55:40.953Z,21.07
2019-02-25T19:58:09.213Z,17.80
2019-02-25T20:00:37.607Z,19.27
2019-02-25T20:03:06.502Z,16.27
2019-02-25T20:05:38.786Z,20.77
2019-02-25T20:08:05.269Z,18.97
2019-02-25T20:10:33.936Z,22.27
2019-02-25T20:13:05.632Z,23.97
2019-02-25T20:15:32.906Z,20.40
2019-02-25T20:18:01.310Z,21.17
2019-02-25T20:20:31.998Z,21.20
2019-02-25T20:23:02.128Z,18.93
2019-02-25T20:25:31.605Z,18.23
2019-02-25T20:28:02.075Z,20.13
2019-02-25T20:30:30.595Z,24.53
2019-02-25T20:33:00.791Z,19.43
2019-02-25T20:35:31.217Z,15.83
2019-02-25T20:38:00.398Z,19.83
2019-02-25T20:40:30.477Z,18.17
2019-02-25T20:43:00.952Z,21.83
2019-02-25T20:45:35.505Z,15.93
2019-02-25T20:48:04.542Z,17.40
2019-02-25T20:50:33.113Z,20.33
2019-02-25T20:53:05.577Z,18.17
2019-02-25T20:55:33.514Z,21.63
2019-02-25T20:58:02.160Z,15.27
2019-02-25T21:00:30.557Z,23.10
2019-02-25T21:02:58.951Z,20.27
2019-02-25T21:05:27.539Z,19.17
2019-02-25T21:07:57.948Z,15.80
2019-02-25T21:10:27.902Z,20.77
2019-02-25T21:12:57.090Z,21.77
2019-02-25T21:15:26.462Z,18.37
2019-02-25T21:17:56.814Z,22.07
2019-02-25T21:20:26.086Z,20.93
2019-02-25T21:22:58.226Z,20.50
2019-02-25T21:25:26.986Z,24.33
2019-02-25T21:27:59.257Z,24.07
2019-02-25T21:30:25.654Z,18.80
2019-02-25T21:32:54.775Z,20.20
2019-02-25T21:35:27.531Z,25.43
2019-02-25T21:37:54.627Z,17.67
2019-02-25T21:40:26.865Z,22.40
2019-02-25T21:42:56.738Z,17.77
2019-02-25T21:45:27.180Z,22.30
2019-02-25T21:47:56.498Z,20.63
2019-02-25T21:50:28.433Z,21.20
2019-02-25T21:52:55.217Z,20.93
2019-02-25T21:55:25.573Z,16.57
2019-02-25T21:57:54.946Z,19.83
2019-02-25T22:00:29.337Z,21.13
2019-02-25T22:02:57.162Z,17.03
2019-02-25T22:05:25.554Z,19.53
2019-02-25T22:07:55.349Z,23.27
2019-02-25T22:10:24.112Z,18.70
2019-02-25T22:12:52.509Z,17.40
2019-02-25T22:15:22.337Z,17.13
2019-02-25T22:17:53.175Z,15.73
2019-02-25T22:20:22.565Z,22.07
2019-02-25T22:22:54.571Z,18.00
2019-02-25T22:25:22.950Z,16.40
2019-02-25T22:27:51.691Z,15.30
2019-02-25T22:30:20.449Z,18.63
2019-02-25T22:32:48.830Z,16.17
2019-02-25T22:35:38.097Z,17.87
2019-02-25T22:38:06.698Z,16.63
2019-02-25T22:40:36.649Z,17.80
2019-02-25T22:43:05.234Z,17.60
2019-02-25T22:45:35.919Z,23.00
2019-02-25T22:48:03.761Z,21.73
2019-02-25T22:50:33.878Z,19.87
2019-02-25T22:53:04.238Z,23.40
2019-02-25T22:55:36.765Z,22.80
2019-02-25T22:58:02.676Z,20.07
2019-02-25T23:00:35.150Z,18.37
2019-02-25T23:03:03.710Z,22.33
2019-02-25T23:05:32.173Z,18.60
2019-02-25T23:08:00.863Z,19.50
2019-02-25T23:10:29.279Z,16.83
2019-02-25T23:12:57.670Z,22.40
2019-02-25T23:15:29.794Z,16.70
2019-02-25T23:18:04.918Z,20.47
2019-02-25T23:20:27.345Z,23.07
2019-02-25T23:22:57.393Z,21.17
2019-02-25T23:25:26.567Z,26.03
2019-02-25T23:27:55.638Z,20.63
2019-02-25T23:30:25.100Z,20.23
2019-02-25T23:32:54.529Z,18.53
2019-02-25T23:35:25.318Z,19.00
2019-02-25T23:37:54.414Z,19.47
2019-02-25T23:40:23.823Z,21.70
2019-02-25T23:42:52.321Z,17.70
2019-02-25T23:45:23.068Z,19.80
2019-02-25T23:47:55.360Z,20.10
2019-02-25T23:50:40.381Z,23.80
2019-02-25T23:53:08.790Z,22.90
2019-02-25T23:55:37.190Z,20.00
2019-02-25T23:58:08.000Z,23.47
